sensor_id;sensor_type;location;lat;lon;timestamp;P1;durP1;ratioP1;P2;durP2;ratioP2
1753;SDS011;58380;48.312;9.246;2022-12-29T07:51:37;23.00;;;7.77;;
1753;SDS011;58380;48.312;9.246;2022-12-29T07:54:03;13.05;;;5.55;;
1753;SDS011;58380;48.312;9.246;2022-12-29T07:56:28;34.67;;;10.85;;
1753;SDS011;58380;48.312;9.246;2022-12-29T07:58:54;10.63;;;3.77;;
1753;SDS011;58380;48.312;9.246;2022-12-29T08:01:19;18.47;;;6.50;;
1753;SDS011;58380;48.312;9.246;2022-12-29T08:06:11;7.97;;;3.83;;
1753;SDS011;58380;48.312;9.246;2022-12-29T08:08:37;9.60;;;3.22;;
1753;SDS011;58380;48.312;9.246;2022-12-29T08:11:03;4.85;;;1.85;;
1753;SDS011;58380;48.312;9.246;2022-12-29T08:13:28;9.07;;;2.63;;
1753;SDS011;58380;48.312;9.246;2022-12-29T08:15:54;8.87;;;2.90;;
1753;SDS011;58380;48.312;9.246;2022-12-29T08:18:19;7.83;;;2.77;;
1753;SDS011;58380;48.312;9.246;2022-12-29T08:20:45;10.03;;;2.10;;
1753;SDS011;58380;48.312;9.246;2022-12-29T08:23:10;6.13;;;1.97;;
1753;SDS011;58380;48.312;9.246;2022-12-29T08:25:36;7.10;;;2.22;;
1753;SDS011;58380;48.312;9.246;2022-12-29T08:28:01;12.10;;;4.67;;
1753;SDS011;58380;48.312;9.246;2022-12-29T08:30:27;12.97;;;4.93;;
1753;SDS011;58380;48.312;9.246;2022-12-29T08:32:52;6.40;;;2.30;;
1753;SDS011;58380;48.312;9.246;2022-12-29T08:35:18;12.95;;;5.25;;
1753;SDS011;58380;48.312;9.246;2022-12-29T08:37:44;11.57;;;3.63;;
1753;SDS011;58380;48.312;9.246;2022-12-29T08:40:09;7.70;;;2.40;;
1753;SDS011;58380;48.312;9.246;2022-12-29T08:42:35;7.57;;;2.70;;
1753;SDS011;58380;48.312;9.246;2022-12-29T08:45:01;3.53;;;1.88;;
1753;SDS011;58380;48.312;9.246;2022-12-29T08:47:26;5.80;;;2.38;;
1753;SDS011;58380;48.312;9.246;2022-12-29T08:49:52;6.82;;;2.88;;
1753;SDS011;58380;48.312;9.246;2022-12-29T08:52:18;4.57;;;2.03;;
1753;SDS011;58380;48.312;9.246;2022-12-29T08:54:44;4.82;;;2.15;;
1753;SDS011;58380;48.312;9.246;2022-12-29T08:57:09;4.47;;;2.40;;
1753;SDS011;58380;48.312;9.246;2022-12-29T08:59:35;4.88;;;2.60;;
1753;SDS011;58380;48.312;9.246;2022-12-29T09:02:00;5.07;;;2.30;;
1753;SDS011;58380;48.312;9.246;2022-12-29T09:04:26;5.15;;;2.20;;
1753;SDS011;58380;48.312;9.246;2022-12-29T09:06:52;4.97;;;2.08;;
1753;SDS011;58380;48.312;9.246;2022-12-29T09:09:18;5.68;;;2.30;;
1753;SDS011;58380;48.312;9.246;2022-12-29T09:11:44;5.18;;;2.30;;
1753;SDS011;58380;48.312;9.246;2022-12-29T09:14:09;5.82;;;2.58;;
1753;SDS011;58380;48.312;9.246;2022-12-29T09:16:35;5.83;;;2.33;;
1753;SDS011;58380;48.312;9.246;2022-12-29T09:19:02;5.93;;;2.38;;
1753;SDS011;58380;48.312;9.246;2022-12-29T09:21:28;5.18;;;2.30;;
1753;SDS011;58380;48.312;9.246;2022-12-29T09:23:53;3.67;;;2.20;;
1753;SDS011;58380;48.312;9.246;2022-12-29T09:26:19;5.10;;;2.25;;
1753;SDS011;58380;48.312;9.246;2022-12-29T09:28:44;4.87;;;2.17;;
1753;SDS011;58380;48.312;9.246;2022-12-29T09:31:10;6.07;;;2.10;;
1753;SDS011;58380;48.312;9.246;2022-12-29T09:33:36;4.82;;;2.13;;
1753;SDS011;58380;48.312;9.246;2022-12-29T09:36:02;5.63;;;1.88;;
1753;SDS011;58380;48.312;9.246;2022-12-29T09:38:28;3.72;;;2.08;;
1753;SDS011;58380;48.312;9.246;2022-12-29T09:40:56;3.35;;;1.63;;
1753;SDS011;58380;48.312;9.246;2022-12-29T09:43:37;7.88;;;2.35;;
1753;SDS011;58380;48.312;9.246;2022-12-29T09:52:44;5.90;;;2.05;;
1753;SDS011;58380;48.312;9.246;2022-12-29T09:57:49;4.63;;;1.63;;
1753;SDS011;58380;48.312;9.246;2022-12-29T10:00:36;3.85;;;1.63;;
1753;SDS011;58380;48.312;9.246;2022-12-29T10:03:20;4.90;;;1.75;;
1753;SDS011;58380;48.312;9.246;2022-12-29T10:05:53;4.20;;;1.30;;
1753;SDS011;58380;48.312;9.246;2022-12-29T10:08:33;4.78;;;1.40;;
1753;SDS011;58380;48.312;9.246;2022-12-29T10:26:01;4.95;;;1.98;;
1753;SDS011;58380;48.312;9.246;2022-12-29T10:28:34;4.22;;;1.52;;
1753;SDS011;58380;48.312;9.246;2022-12-29T10:31:08;4.75;;;1.48;;
1753;SDS011;58380;48.312;9.246;2022-12-29T10:33:44;4.35;;;1.60;;
1753;SDS011;58380;48.312;9.246;2022-12-29T10:36:16;4.47;;;1.40;;
1753;SDS011;58380;48.312;9.246;2022-12-29T10:39:03;4.53;;;1.48;;
1753;SDS011;58380;48.312;9.246;2022-12-29T10:41:51;4.15;;;1.50;;
1753;SDS011;58380;48.312;9.246;2022-12-29T10:44:30;9.30;;;1.75;;
1753;SDS011;58380;48.312;9.246;2022-12-29T10:46:59;3.30;;;1.27;;
1753;SDS011;58380;48.312;9.246;2022-12-29T10:49:31;4.25;;;1.52;;
1753;SDS011;58380;48.312;9.246;2022-12-29T10:52:04;2.63;;;1.33;;
1753;SDS011;58380;48.312;9.246;2022-12-29T10:54:38;3.83;;;1.55;;
1753;SDS011;58380;48.312;9.246;2022-12-29T10:57:32;3.92;;;1.75;;
1753;SDS011;58380;48.312;9.246;2022-12-29T11:00:04;4.45;;;1.77;;
1753;SDS011;58380;48.312;9.246;2022-12-29T11:02:59;4.65;;;2.03;;
1753;SDS011;58380;48.312;9.246;2022-12-29T11:08:24;3.90;;;1.50;;
1753;SDS011;58380;48.312;9.246;2022-12-29T11:10:59;4.03;;;1.98;;
1753;SDS011;58380;48.312;9.246;2022-12-29T11:13:29;3.53;;;2.08;;
1753;SDS011;58380;48.312;9.246;2022-12-29T11:15:59;3.20;;;1.42;;
1753;SDS011;58380;48.312;9.246;2022-12-29T11:20:58;4.30;;;1.40;;
1753;SDS011;58380;48.312;9.246;2022-12-29T11:23:37;2.08;;;1.33;;
1753;SDS011;58380;48.312;9.246;2022-12-29T11:31:46;7.40;;;2.00;;
1753;SDS011;58380;48.312;9.246;2022-12-29T11:34:51;11.10;;;2.97;;
1753;SDS011;58380;48.312;9.246;2022-12-29T11:37:14;6.97;;;3.30;;
1753;SDS011;58380;48.312;9.246;2022-12-29T11:40:16;5.72;;;2.80;;
1753;SDS011;58380;48.312;9.246;2022-12-29T11:42:48;7.47;;;3.35;;
1753;SDS011;58380;48.312;9.246;2022-12-29T11:45:18;10.70;;;3.92;;
1753;SDS011;58380;48.312;9.246;2022-12-29T11:47:47;7.40;;;2.90;;
1753;SDS011;58380;48.312;9.246;2022-12-29T11:50:20;6.75;;;3.17;;
1753;SDS011;58380;48.312;9.246;2022-12-29T11:52:56;6.78;;;2.85;;
1753;SDS011;58380;48.312;9.246;2022-12-29T11:55:51;15.30;;;7.57;;
1753;SDS011;58380;48.312;9.246;2022-12-29T11:58:31;6.35;;;3.28;;
1753;SDS011;58380;48.312;9.246;2022-12-29T12:01:06;6.78;;;2.38;;
1753;SDS011;58380;48.312;9.246;2022-12-29T12:03:51;6.10;;;2.17;;
1753;SDS011;58380;48.312;9.246;2022-12-29T12:06:26;8.13;;;2.97;;
1753;SDS011;58380;48.312;9.246;2022-12-29T12:08:59;7.80;;;3.20;;
1753;SDS011;58380;48.312;9.246;2022-12-29T12:11:37;7.00;;;2.65;;
1753;SDS011;58380;48.312;9.246;2022-12-29T12:14:25;6.20;;;2.45;;
1753;SDS011;58380;48.312;9.246;2022-12-29T12:17:14;6.15;;;2.78;;
1753;SDS011;58380;48.312;9.246;2022-12-29T12:20:24;4.80;;;2.88;;
1753;SDS011;58380;48.312;9.246;2022-12-29T12:23:19;8.27;;;3.35;;
1753;SDS011;58380;48.312;9.246;2022-12-29T12:26:16;6.50;;;3.80;;
1753;SDS011;58380;48.312;9.246;2022-12-29T12:28:49;5.93;;;1.95;;
1753;SDS011;58380;48.312;9.246;2022-12-29T12:31:41;2.95;;;1.70;;
1753;SDS011;58380;48.312;9.246;2022-12-29T12:34:30;5.97;;;1.70;;
1753;SDS011;58380;48.312;9.246;2022-12-29T12:37:25;4.00;;;1.60;;
1753;SDS011;58380;48.312;9.246;2022-12-29T12:46:19;5.40;;;2.00;;
1753;SDS011;58380;48.312;9.246;2022-12-29T12:58:48;4.18;;;1.60;;
1753;SDS011;58380;48.312;9.246;2022-12-29T13:02:01;3.17;;;1.08;;
1753;SDS011;58380;48.312;9.246;2022-12-29T13:04:48;7.20;;;1.77;;
1753;SDS011;58380;48.312;9.246;2022-12-29T13:10:29;6.20;;;2.30;;
1753;SDS011;58380;48.312;9.246;2022-12-29T13:19:30;2.75;;;1.60;;
1753;SDS011;58380;48.312;9.246;2022-12-29T13:28:01;1.88;;;1.10;;
1753;SDS011;58380;48.312;9.246;2022-12-29T13:30:58;5.22;;;1.85;;
1753;SDS011;58380;48.312;9.246;2022-12-29T13:36:42;10.50;;;4.75;;
1753;SDS011;58380;48.312;9.246;2022-12-29T13:39:28;22.98;;;12.40;;
1753;SDS011;58380;48.312;9.246;2022-12-29T13:42:02;16.33;;;9.38;;
1753;SDS011;58380;48.312;9.246;2022-12-29T13:44:46;7.55;;;4.68;;
1753;SDS011;58380;48.312;9.246;2022-12-29T13:47:36;4.22;;;2.10;;
1753;SDS011;58380;48.312;9.246;2022-12-29T13:50:20;4.18;;;1.85;;
1753;SDS011;58380;48.312;9.246;2022-12-29T13:53:10;2.95;;;1.17;;
1753;SDS011;58380;48.312;9.246;2022-12-29T14:01:22;3.78;;;1.65;;
1753;SDS011;58380;48.312;9.246;2022-12-29T14:03:58;2.97;;;1.75;;
1753;SDS011;58380;48.312;9.246;2022-12-29T14:06:29;6.55;;;2.95;;
1753;SDS011;58380;48.312;9.246;2022-12-29T14:14:37;3.47;;;1.92;;
1753;SDS011;58380;48.312;9.246;2022-12-29T14:17:09;10.45;;;5.50;;
1753;SDS011;58380;48.312;9.246;2022-12-29T14:19:39;9.10;;;5.25;;
1753;SDS011;58380;48.312;9.246;2022-12-29T14:22:10;6.50;;;3.30;;
1753;SDS011;58380;48.312;9.246;2022-12-29T14:24:38;8.63;;;4.20;;
1753;SDS011;58380;48.312;9.246;2022-12-29T14:32:31;5.97;;;2.85;;
1753;SDS011;58380;48.312;9.246;2022-12-29T14:34:55;13.25;;;4.93;;
1753;SDS011;58380;48.312;9.246;2022-12-29T14:37:27;7.90;;;2.45;;
1753;SDS011;58380;48.312;9.246;2022-12-29T14:40:02;4.15;;;1.90;;
1753;SDS011;58380;48.312;9.246;2022-12-29T14:42:31;2.97;;;1.67;;
1753;SDS011;58380;48.312;9.246;2022-12-29T14:45:00;4.82;;;2.30;;
1753;SDS011;58380;48.312;9.246;2022-12-29T14:47:34;5.40;;;2.10;;
1753;SDS011;58380;48.312;9.246;2022-12-29T14:52:44;2.88;;;1.25;;
1753;SDS011;58380;48.312;9.246;2022-12-29T14:57:40;4.07;;;1.80;;
1753;SDS011;58380;48.312;9.246;2022-12-29T15:03:12;4.03;;;2.15;;
1753;SDS011;58380;48.312;9.246;2022-12-29T15:08:23;5.63;;;1.83;;
1753;SDS011;58380;48.312;9.246;2022-12-29T15:11:01;4.07;;;1.90;;
1753;SDS011;58380;48.312;9.246;2022-12-29T15:13:37;3.80;;;1.92;;
1753;SDS011;58380;48.312;9.246;2022-12-29T15:16:20;3.15;;;1.48;;
1753;SDS011;58380;48.312;9.246;2022-12-29T15:18:49;3.15;;;1.90;;
1753;SDS011;58380;48.312;9.246;2022-12-29T15:21:14;7.17;;;3.07;;
1753;SDS011;58380;48.312;9.246;2022-12-29T15:23:42;4.93;;;2.35;;
1753;SDS011;58380;48.312;9.246;2022-12-29T15:26:10;8.70;;;4.85;;
1753;SDS011;58380;48.312;9.246;2022-12-29T15:31:11;5.95;;;2.50;;
1753;SDS011;58380;48.312;9.246;2022-12-29T15:33:41;4.55;;;2.80;;
1753;SDS011;58380;48.312;9.246;2022-12-29T15:36:20;8.98;;;3.63;;
1753;SDS011;58380;48.312;9.246;2022-12-29T15:38:51;4.72;;;3.00;;
1753;SDS011;58380;48.312;9.246;2022-12-29T15:46:33;4.72;;;2.33;;
1753;SDS011;58380;48.312;9.246;2022-12-29T15:48:58;4.15;;;2.47;;
1753;SDS011;58380;48.312;9.246;2022-12-29T15:51:31;5.07;;;2.38;;
1753;SDS011;58380;48.312;9.246;2022-12-29T15:54:02;9.20;;;3.70;;
1753;SDS011;58380;48.312;9.246;2022-12-29T15:56:28;8.90;;;3.90;;
1753;SDS011;58380;48.312;9.246;2022-12-29T15:58:56;9.25;;;4.40;;
1753;SDS011;58380;48.312;9.246;2022-12-29T16:04:03;5.85;;;3.10;;
1753;SDS011;58380;48.312;9.246;2022-12-29T16:06:36;9.93;;;4.88;;
1753;SDS011;58380;48.312;9.246;2022-12-29T16:09:18;16.48;;;7.20;;
1753;SDS011;58380;48.312;9.246;2022-12-29T16:12:04;7.15;;;3.97;;
1753;SDS011;58380;48.312;9.246;2022-12-29T16:20:19;6.20;;;2.70;;
1753;SDS011;58380;48.312;9.246;2022-12-29T16:22:50;4.82;;;1.70;;
1753;SDS011;58380;48.312;9.246;2022-12-29T16:25:25;3.22;;;1.70;;
1753;SDS011;58380;48.312;9.246;2022-12-29T16:27:56;3.15;;;1.90;;
1753;SDS011;58380;48.312;9.246;2022-12-29T16:30:26;3.45;;;2.35;;
1753;SDS011;58380;48.312;9.246;2022-12-29T16:32:58;4.90;;;2.20;;
1753;SDS011;58380;48.312;9.246;2022-12-29T16:35:45;3.63;;;1.92;;
1753;SDS011;58380;48.312;9.246;2022-12-29T16:38:13;14.75;;;7.68;;
1753;SDS011;58380;48.312;9.246;2022-12-29T16:41:01;13.10;;;6.40;;
1753;SDS011;58380;48.312;9.246;2022-12-29T16:48:54;18.48;;;8.65;;
1753;SDS011;58380;48.312;9.246;2022-12-29T16:51:28;11.30;;;4.82;;
1753;SDS011;58380;48.312;9.246;2022-12-29T16:54:02;9.30;;;4.10;;
1753;SDS011;58380;48.312;9.246;2022-12-29T16:56:33;7.82;;;3.50;;
1753;SDS011;58380;48.312;9.246;2022-12-29T16:59:05;7.70;;;3.20;;
1753;SDS011;58380;48.312;9.246;2022-12-29T17:01:50;11.43;;;4.85;;
1753;SDS011;58380;48.312;9.246;2022-12-29T17:04:15;17.90;;;7.50;;
1753;SDS011;58380;48.312;9.246;2022-12-29T17:06:41;17.17;;;7.85;;
1753;SDS011;58380;48.312;9.246;2022-12-29T17:09:20;11.90;;;6.80;;
1753;SDS011;58380;48.312;9.246;2022-12-29T17:11:50;10.35;;;5.60;;
1753;SDS011;58380;48.312;9.246;2022-12-29T17:14:28;9.43;;;4.63;;
1753;SDS011;58380;48.312;9.246;2022-12-29T17:17:18;7.25;;;2.65;;
1753;SDS011;58380;48.312;9.246;2022-12-29T17:20:08;8.32;;;3.08;;
1753;SDS011;58380;48.312;9.246;2022-12-29T17:22:40;6.40;;;2.58;;
1753;SDS011;58380;48.312;9.246;2022-12-29T17:25:06;7.90;;;2.27;;
1753;SDS011;58380;48.312;9.246;2022-12-29T17:27:36;8.75;;;3.38;;
1753;SDS011;58380;48.312;9.246;2022-12-29T17:30:11;4.72;;;2.60;;
1753;SDS011;58380;48.312;9.246;2022-12-29T17:32:48;5.35;;;2.72;;
1753;SDS011;58380;48.312;9.246;2022-12-29T17:35:18;7.25;;;3.33;;
1753;SDS011;58380;48.312;9.246;2022-12-29T17:37:47;6.53;;;2.80;;
1753;SDS011;58380;48.312;9.246;2022-12-29T17:40:23;4.70;;;2.22;;
1753;SDS011;58380;48.312;9.246;2022-12-29T17:42:53;13.02;;;6.30;;
1753;SDS011;58380;48.312;9.246;2022-12-29T17:45:25;7.55;;;3.20;;
1753;SDS011;58380;48.312;9.246;2022-12-29T17:47:54;5.40;;;2.63;;
1753;SDS011;58380;48.312;9.246;2022-12-29T17:52:51;7.65;;;5.35;;
1753;SDS011;58380;48.312;9.246;2022-12-29T17:55:22;6.53;;;3.47;;
1753;SDS011;58380;48.312;9.246;2022-12-29T17:57:50;4.88;;;2.78;;
1753;SDS011;58380;48.312;9.246;2022-12-29T18:00:17;4.00;;;2.17;;
1753;SDS011;58380;48.312;9.246;2022-12-29T18:02:53;4.65;;;1.95;;
1753;SDS011;58380;48.312;9.246;2022-12-29T18:05:20;3.28;;;1.75;;
1753;SDS011;58380;48.312;9.246;2022-12-29T18:07:54;3.45;;;1.90;;
1753;SDS011;58380;48.312;9.246;2022-12-29T18:10:23;4.38;;;1.77;;
1753;SDS011;58380;48.312;9.246;2022-12-29T18:12:52;3.75;;;1.92;;
1753;SDS011;58380;48.312;9.246;2022-12-29T18:15:23;4.13;;;2.10;;
1753;SDS011;58380;48.312;9.246;2022-12-29T18:18:05;5.65;;;1.65;;
1753;SDS011;58380;48.312;9.246;2022-12-29T18:20:37;4.88;;;2.30;;
1753;SDS011;58380;48.312;9.246;2022-12-29T18:23:05;4.43;;;1.42;;
1753;SDS011;58380;48.312;9.246;2022-12-29T18:25:50;4.90;;;1.70;;
1753;SDS011;58380;48.312;9.246;2022-12-29T18:28:21;5.45;;;1.95;;
1753;SDS011;58380;48.312;9.246;2022-12-29T18:30:47;5.97;;;1.80;;
1753;SDS011;58380;48.312;9.246;2022-12-29T18:33:14;5.22;;;1.73;;
1753;SDS011;58380;48.312;9.246;2022-12-29T18:35:53;2.63;;;1.55;;
1753;SDS011;58380;48.312;9.246;2022-12-29T18:38:28;6.13;;;2.30;;
1753;SDS011;58380;48.312;9.246;2022-12-29T18:40:54;6.22;;;2.97;;
1753;SDS011;58380;48.312;9.246;2022-12-29T18:43:21;5.25;;;1.95;;
1753;SDS011;58380;48.312;9.246;2022-12-29T18:45:47;3.03;;;1.60;;
1753;SDS011;58380;48.312;9.246;2022-12-29T18:48:13;4.40;;;1.90;;
1753;SDS011;58380;48.312;9.246;2022-12-29T18:50:39;6.20;;;1.88;;
1753;SDS011;58380;48.312;9.246;2022-12-29T18:53:06;4.07;;;1.70;;
1753;SDS011;58380;48.312;9.246;2022-12-29T18:55:36;3.90;;;1.60;;
1753;SDS011;58380;48.312;9.246;2022-12-29T18:58:01;3.30;;;1.90;;
1753;SDS011;58380;48.312;9.246;2022-12-29T19:00:27;6.27;;;2.03;;
1753;SDS011;58380;48.312;9.246;2022-12-29T19:02:52;6.53;;;2.27;;
1753;SDS011;58380;48.312;9.246;2022-12-29T19:05:22;8.67;;;2.73;;
1753;SDS011;58380;48.312;9.246;2022-12-29T19:07:53;7.45;;;3.05;;
1753;SDS011;58380;48.312;9.246;2022-12-29T19:10:19;4.97;;;2.42;;
1753;SDS011;58380;48.312;9.246;2022-12-29T19:12:47;5.05;;;2.38;;
1753;SDS011;58380;48.312;9.246;2022-12-29T19:15:26;5.18;;;2.35;;
1753;SDS011;58380;48.312;9.246;2022-12-29T19:18:04;3.78;;;2.03;;
1753;SDS011;58380;48.312;9.246;2022-12-29T19:20:38;3.90;;;1.80;;
1753;SDS011;58380;48.312;9.246;2022-12-29T19:23:11;4.33;;;2.60;;
1753;SDS011;58380;48.312;9.246;2022-12-29T19:25:40;5.82;;;2.97;;
1753;SDS011;58380;48.312;9.246;2022-12-29T19:28:06;6.75;;;3.40;;
1753;SDS011;58380;48.312;9.246;2022-12-29T19:30:45;4.63;;;2.17;;
1753;SDS011;58380;48.312;9.246;2022-12-29T19:33:12;4.35;;;2.50;;
1753;SDS011;58380;48.312;9.246;2022-12-29T19:35:38;5.63;;;2.50;;
1753;SDS011;58380;48.312;9.246;2022-12-29T19:38:05;5.68;;;2.30;;
1753;SDS011;58380;48.312;9.246;2022-12-29T19:42:57;8.40;;;2.10;;
1753;SDS011;58380;48.312;9.246;2022-12-29T19:45:23;4.93;;;2.45;;
1753;SDS011;58380;48.312;9.246;2022-12-29T19:47:48;8.63;;;3.67;;
1753;SDS011;58380;48.312;9.246;2022-12-29T19:50:15;9.00;;;4.43;;
1753;SDS011;58380;48.312;9.246;2022-12-29T19:52:42;6.53;;;3.35;;
1753;SDS011;58380;48.312;9.246;2022-12-29T19:55:09;9.80;;;3.08;;
1753;SDS011;58380;48.312;9.246;2022-12-29T19:57:39;6.10;;;2.90;;
1753;SDS011;58380;48.312;9.246;2022-12-29T20:00:05;9.15;;;3.35;;
1753;SDS011;58380;48.312;9.246;2022-12-29T20:02:32;5.57;;;2.75;;
1753;SDS011;58380;48.312;9.246;2022-12-29T20:04:58;7.13;;;2.72;;
1753;SDS011;58380;48.312;9.246;2022-12-29T20:07:25;4.30;;;2.28;;
1753;SDS011;58380;48.312;9.246;2022-12-29T20:09:51;4.75;;;2.63;;
1753;SDS011;58380;48.312;9.246;2022-12-29T20:12:17;7.57;;;2.67;;
1753;SDS011;58380;48.312;9.246;2022-12-29T20:14:43;4.18;;;2.15;;
1753;SDS011;58380;48.312;9.246;2022-12-29T20:19:38;8.48;;;3.70;;
1753;SDS011;58380;48.312;9.246;2022-12-29T20:22:06;5.30;;;2.15;;
1753;SDS011;58380;48.312;9.246;2022-12-29T20:24:34;8.35;;;2.95;;
1753;SDS011;58380;48.312;9.246;2022-12-29T20:27:02;7.72;;;3.90;;
1753;SDS011;58380;48.312;9.246;2022-12-29T20:29:33;5.25;;;2.63;;
1753;SDS011;58380;48.312;9.246;2022-12-29T20:32:14;7.07;;;2.78;;
1753;SDS011;58380;48.312;9.246;2022-12-29T20:34:43;6.63;;;2.50;;
1753;SDS011;58380;48.312;9.246;2022-12-29T20:37:10;4.03;;;2.13;;
1753;SDS011;58380;48.312;9.246;2022-12-29T20:39:36;3.75;;;1.65;;
1753;SDS011;58380;48.312;9.246;2022-12-29T20:42:04;4.15;;;1.98;;
1753;SDS011;58380;48.312;9.246;2022-12-29T20:44:30;10.90;;;4.27;;
1753;SDS011;58380;48.312;9.246;2022-12-29T20:46:57;12.98;;;5.60;;
1753;SDS011;58380;48.312;9.246;2022-12-29T20:49:26;18.27;;;7.72;;
1753;SDS011;58380;48.312;9.246;2022-12-29T20:51:53;4.05;;;2.33;;
1753;SDS011;58380;48.312;9.246;2022-12-29T20:54:18;4.03;;;1.90;;
1753;SDS011;58380;48.312;9.246;2022-12-29T20:56:44;4.50;;;2.28;;
1753;SDS011;58380;48.312;9.246;2022-12-29T20:59:10;5.07;;;2.42;;
1753;SDS011;58380;48.312;9.246;2022-12-29T21:01:37;5.40;;;2.83;;
1753;SDS011;58380;48.312;9.246;2022-12-29T21:04:03;8.02;;;3.65;;
1753;SDS011;58380;48.312;9.246;2022-12-29T21:06:30;4.50;;;2.53;;
1753;SDS011;58380;48.312;9.246;2022-12-29T21:08:57;5.47;;;2.40;;
1753;SDS011;58380;48.312;9.246;2022-12-29T21:11:24;4.28;;;2.50;;
1753;SDS011;58380;48.312;9.246;2022-12-29T21:16:15;8.13;;;3.08;;
1753;SDS011;58380;48.312;9.246;2022-12-29T21:18:44;6.38;;;3.10;;
1753;SDS011;58380;48.312;9.246;2022-12-29T21:21:15;7.80;;;2.83;;
1753;SDS011;58380;48.312;9.246;2022-12-29T21:23:45;5.68;;;2.80;;
1753;SDS011;58380;48.312;9.246;2022-12-29T21:26:12;5.00;;;2.25;;
1753;SDS011;58380;48.312;9.246;2022-12-29T21:28:41;9.07;;;4.53;;
1753;SDS011;58380;48.312;9.246;2022-12-29T21:31:08;4.68;;;1.45;;
1753;SDS011;58380;48.312;9.246;2022-12-29T21:33:40;4.88;;;1.10;;
1753;SDS011;58380;48.312;9.246;2022-12-29T21:36:06;2.03;;;0.80;;
1753;SDS011;58380;48.312;9.246;2022-12-29T21:38:33;1.35;;;0.60;;
1753;SDS011;58380;48.312;9.246;2022-12-29T21:41:03;1.48;;;0.70;;
1753;SDS011;58380;48.312;9.246;2022-12-29T21:43:33;0.90;;;0.35;;
1753;SDS011;58380;48.312;9.246;2022-12-29T21:46:00;1.80;;;0.40;;
1753;SDS011;58380;48.312;9.246;2022-12-29T21:48:25;1.17;;;0.20;;
1753;SDS011;58380;48.312;9.246;2022-12-29T21:51:02;0.77;;;0.25;;
1753;SDS011;58380;48.312;9.246;2022-12-29T21:53:58;0.10;;;0.10;;
1753;SDS011;58380;48.312;9.246;2022-12-29T21:56:44;0.55;;;0.28;;
1753;SDS011;58380;48.312;9.246;2022-12-29T21:59:12;0.77;;;0.30;;
1753;SDS011;58380;48.312;9.246;2022-12-29T22:01:58;0.80;;;0.35;;
1753;SDS011;58380;48.312;9.246;2022-12-29T22:04:43;0.77;;;0.30;;
1753;SDS011;58380;48.312;9.246;2022-12-29T22:07:27;1.25;;;0.40;;
